Time;durP1;ratioP1;P1;durP2;ratioP2;P2;SDS_P1;SDS_P2;PMS_P1;PMS_P2;Temp;Humidity;BMP_temperature;BMP_pressure;BME280_temperature;BME280_humidity;BME280_pressure;Samples;Min_cycle;Max_cycle;Signal;HPM_P1;HPM_P2
2023/10/22 00:01:02;;;;;;;1.97;0.80;;;14.30;99.90;;;;;;4989181;28;20187;-66
2023/10/22 00:03:28;;;;;;;2.70;1.00;;;14.30;99.90;;;;;;4978210;28;20531;-65
2023/10/22 00:05:54;;;;;;;2.00;0.80;;;14.30;99.90;;;;;;4989667;28;20184;-67
2023/10/22 00:08:19;;;;;;;2.90;0.93;;;14.30;99.90;;;;;;4989676;28;20189;-65
2023/10/22 00:10:45;;;;;;;4.70;0.90;;;14.30;99.90;;;;;;4989219;28;20184;-67
2023/10/22 00:13:11;;;;;;;2.53;1.10;;;14.30;99.90;;;;;;4988682;28;20672;-65
2023/10/22 00:15:37;;;;;;;1.63;0.70;;;14.30;99.90;;;;;;4988486;28;20193;-64
2023/10/22 00:18:02;;;;;;;6.23;1.10;;;14.30;99.90;;;;;;4989502;28;20187;-65
2023/10/22 00:20:30;;;;;;;4.83;0.87;;;14.30;99.90;;;;;;4987648;28;20183;-64
2023/10/22 00:22:56;;;;;;;5.50;1.17;;;14.30;99.90;;;;;;4988337;28;20307;-64
2023/10/22 00:25:21;;;;;;;3.97;1.13;;;14.30;99.90;;;;;;4989317;28;20852;-65
2023/10/22 00:27:47;;;;;;;5.87;1.07;;;14.30;99.90;;;;;;4988594;28;20198;-64
2023/10/22 00:30:12;;;;;;;3.43;1.00;;;14.30;99.90;;;;;;4990056;28;20974;-66
2023/10/22 00:32:38;;;;;;;2.73;0.97;;;14.30;99.90;;;;;;4988237;28;20186;-65
2023/10/22 00:35:04;;;;;;;2.53;0.97;;;14.30;99.90;;;;;;4988516;28;20314;-65
2023/10/22 00:37:30;;;;;;;3.40;0.93;;;14.30;99.90;;;;;;4988855;28;20722;-63
2023/10/22 00:39:55;;;;;;;6.63;1.77;;;14.20;99.90;;;;;;4990239;28;20249;-66
2023/10/22 00:42:22;;;;;;;2.40;0.80;;;14.20;99.90;;;;;;4994232;28;20229;-65
2023/10/22 00:44:47;;;;;;;1.80;0.87;;;14.20;99.90;;;;;;4991349;28;20202;-63
2023/10/22 00:47:15;;;;;;;4.80;0.93;;;14.20;99.90;;;;;;4993052;28;20450;-67
2023/10/22 00:49:42;;;;;;;2.87;0.80;;;14.20;99.90;;;;;;4991112;28;20200;-65
2023/10/22 00:52:08;;;;;;;1.47;0.73;;;14.20;99.90;;;;;;4991519;28;20434;-64
2023/10/22 00:54:34;;;;;;;2.13;0.90;;;14.20;99.90;;;;;;4989899;28;21150;-65
2023/10/22 00:57:02;;;;;;;2.70;0.83;;;14.20;99.90;;;;;;4991442;28;20437;-66
2023/10/22 00:59:28;;;;;;;4.60;0.80;;;14.20;99.90;;;;;;4990185;28;20465;-64
2023/10/22 01:01:53;;;;;;;4.43;0.80;;;14.20;99.90;;;;;;4991076;28;20426;-64
2023/10/22 01:04:19;;;;;;;4.93;1.00;;;14.20;99.90;;;;;;4990508;28;20448;-64
2023/10/22 01:06:46;;;;;;;1.70;0.70;;;14.30;99.90;;;;;;4990127;28;20243;-65
2023/10/22 01:09:11;;;;;;;1.20;0.80;;;14.30;99.90;;;;;;4991729;28;20179;-65
2023/10/22 01:11:56;;;;;;;4.93;1.00;;;14.30;99.90;;;;;;4989968;28;20418;-65
2023/10/22 01:14:22;;;;;;;1.80;0.70;;;14.30;99.90;;;;;;4990657;28;20642;-64
2023/10/22 01:16:47;;;;;;;2.43;0.90;;;14.30;99.90;;;;;;4989227;28;20434;-64
2023/10/22 01:19:13;;;;;;;2.40;0.73;;;14.30;99.90;;;;;;4991485;28;20616;-63
2023/10/22 01:21:38;;;;;;;3.43;1.00;;;14.30;99.90;;;;;;4981633;28;20696;-65
2023/10/22 01:24:04;;;;;;;3.07;1.00;;;14.30;99.90;;;;;;4989839;28;20281;-66
2023/10/22 01:26:30;;;;;;;3.60;1.10;;;14.30;99.90;;;;;;4989553;28;20909;-66
2023/10/22 01:28:56;;;;;;;2.20;1.10;;;14.30;99.90;;;;;;4990593;28;20435;-64
2023/10/22 01:31:21;;;;;;;2.20;0.70;;;14.30;99.90;;;;;;4991380;28;20663;-66
2023/10/22 01:33:47;;;;;;;3.60;1.00;;;14.30;99.90;;;;;;4988603;28;20557;-67
2023/10/22 01:36:13;;;;;;;2.50;0.60;;;14.30;99.90;;;;;;4991069;28;20246;-67
2023/10/22 01:38:39;;;;;;;2.63;0.80;;;14.20;99.90;;;;;;4987195;28;20230;-64
2023/10/22 01:41:08;;;;;;;3.00;1.07;;;14.30;99.90;;;;;;4989772;28;20179;-66
2023/10/22 01:43:35;;;;;;;1.50;0.70;;;14.30;99.90;;;;;;4950069;28;1137178;-63
2023/10/22 01:46:00;;;;;;;1.00;0.77;;;14.30;99.90;;;;;;4989290;28;21307;-64
2023/10/22 01:48:26;;;;;;;1.90;0.90;;;14.20;99.90;;;;;;4991637;28;20493;-67
2023/10/22 01:50:52;;;;;;;3.57;0.80;;;14.20;99.90;;;;;;4990219;28;20727;-65
2023/10/22 01:53:18;;;;;;;1.93;0.97;;;14.20;99.90;;;;;;4989935;28;20497;-65
2023/10/22 01:55:44;;;;;;;1.33;1.00;;;14.20;99.90;;;;;;4990739;28;20973;-64
2023/10/22 01:58:09;;;;;;;2.87;0.80;;;14.20;99.90;;;;;;4991456;28;20187;-65
2023/10/22 02:00:36;;;;;;;2.67;0.80;;;14.30;99.90;;;;;;4991692;28;20223;-63
2023/10/22 02:03:04;;;;;;;1.67;0.87;;;14.30;99.90;;;;;;4989699;28;20215;-67
2023/10/22 02:05:33;;;;;;;3.00;0.90;;;14.30;99.90;;;;;;4991508;28;20480;-67
2023/10/22 02:07:59;;;;;;;3.00;0.80;;;14.30;99.90;;;;;;4989884;28;21216;-64
2023/10/22 02:10:25;;;;;;;1.30;0.60;;;14.20;99.90;;;;;;4992544;28;20526;-68
2023/10/22 02:12:50;;;;;;;1.97;1.03;;;14.20;99.90;;;;;;4990874;28;21279;-67
2023/10/22 02:15:16;;;;;;;2.70;0.50;;;14.20;99.90;;;;;;4991989;28;20258;-64
2023/10/22 02:17:42;;;;;;;1.37;0.60;;;14.20;99.90;;;;;;4989732;28;20213;-65
2023/10/22 02:20:09;;;;;;;3.60;0.93;;;14.30;99.90;;;;;;4989305;28;20183;-64
2023/10/22 02:22:38;;;;;;;2.40;0.70;;;14.30;99.90;;;;;;4991073;28;20471;-65
2023/10/22 02:25:06;;;;;;;2.63;0.80;;;14.30;99.90;;;;;;4989257;28;20426;-64
2023/10/22 02:27:32;;;;;;;2.60;1.00;;;14.20;99.90;;;;;;4991080;28;20434;-64
2023/10/22 02:29:57;;;;;;;1.40;0.60;;;14.20;99.90;;;;;;4989923;28;20433;-66
2023/10/22 02:32:23;;;;;;;1.20;0.60;;;14.20;99.90;;;;;;4989420;28;21244;-65
2023/10/22 02:34:49;;;;;;;2.53;0.70;;;14.20;99.90;;;;;;4989119;28;20522;-64
2023/10/22 02:37:15;;;;;;;1.50;0.70;;;14.20;99.90;;;;;;4990882;28;20190;-67
2023/10/22 02:39:41;;;;;;;2.20;0.60;;;14.20;99.90;;;;;;4990481;28;20422;-67
2023/10/22 02:42:07;;;;;;;2.37;0.60;;;14.20;99.90;;;;;;4989651;28;20207;-66
2023/10/22 02:44:33;;;;;;;1.37;0.80;;;14.20;99.90;;;;;;4989931;28;20450;-67
2023/10/22 02:46:59;;;;;;;2.20;0.93;;;14.10;99.90;;;;;;4989320;28;21230;-64
2023/10/22 02:49:25;;;;;;;1.37;0.67;;;14.10;99.90;;;;;;4990652;28;20188;-64
2023/10/22 02:51:52;;;;;;;1.07;0.60;;;14.10;99.90;;;;;;4989422;28;20479;-65
2023/10/22 02:54:18;;;;;;;1.20;0.80;;;14.10;99.90;;;;;;4989388;28;20172;-67
2023/10/22 02:56:43;;;;;;;1.60;0.70;;;14.10;99.90;;;;;;4989505;28;20430;-64
2023/10/22 02:59:10;;;;;;;3.27;0.60;;;14.10;99.90;;;;;;4989572;28;20237;-68
2023/10/22 03:01:36;;;;;;;2.33;0.63;;;14.10;99.90;;;;;;4987006;28;20241;-65
2023/10/22 03:04:01;;;;;;;3.93;0.80;;;14.10;99.90;;;;;;4987941;28;20481;-64
2023/10/22 03:06:27;;;;;;;4.67;0.93;;;14.10;99.90;;;;;;4989816;28;20802;-65
2023/10/22 03:08:53;;;;;;;1.27;0.47;;;14.00;99.90;;;;;;4989717;28;20187;-66
2023/10/22 03:11:19;;;;;;;2.00;1.10;;;14.00;99.90;;;;;;4988765;28;20880;-65
2023/10/22 03:13:46;;;;;;;3.03;0.80;;;13.90;99.90;;;;;;4988761;28;20427;-67
2023/10/22 03:16:14;;;;;;;2.70;0.70;;;13.90;99.90;;;;;;4988859;28;20537;-65
2023/10/22 03:18:41;;;;;;;1.47;0.70;;;13.90;99.90;;;;;;4989035;28;20445;-66
2023/10/22 03:21:11;;;;;;;2.50;0.63;;;13.90;99.90;;;;;;4980292;28;20434;-66
2023/10/22 03:23:43;;;;;;;1.00;0.50;;;13.90;99.90;;;;;;4988685;28;20874;-63
2023/10/22 03:26:13;;;;;;;1.33;0.50;;;13.90;99.90;;;;;;4987996;28;20438;-67
2023/10/22 03:28:39;;;;;;;1.53;1.07;;;13.90;99.90;;;;;;4989626;28;20423;-67
2023/10/22 03:31:05;;;;;;;1.43;0.40;;;13.90;99.90;;;;;;4988427;28;20441;-66
2023/10/22 03:33:31;;;;;;;3.70;1.93;;;13.90;99.90;;;;;;4989183;28;20431;-66
2023/10/22 03:35:58;;;;;;;0.70;0.40;;;13.80;99.90;;;;;;4990309;28;20431;-65
2023/10/22 03:38:27;;;;;;;1.83;0.70;;;13.90;99.90;;;;;;4990086;28;20426;-67
2023/10/22 03:41:02;;;;;;;1.03;0.50;;;13.80;99.90;;;;;;4991143;28;21433;-66
2023/10/22 03:43:28;;;;;;;1.70;0.90;;;13.80;99.90;;;;;;4988718;28;20482;-67
2023/10/22 03:45:58;;;;;;;1.00;0.67;;;13.70;99.90;;;;;;4988843;28;20999;-66
2023/10/22 03:48:27;;;;;;;1.30;0.53;;;13.80;99.90;;;;;;4988870;28;20602;-65
2023/10/22 03:50:54;;;;;;;1.80;0.60;;;13.70;99.90;;;;;;4988541;28;20426;-67
2023/10/22 03:53:21;;;;;;;1.83;0.50;;;13.70;99.90;;;;;;4986326;28;20430;-64
2023/10/22 03:55:47;;;;;;;1.43;0.70;;;13.60;99.90;;;;;;4988541;28;20443;-66
2023/10/22 03:58:13;;;;;;;1.77;0.60;;;13.60;99.90;;;;;;4988282;28;20445;-66
2023/10/22 04:00:38;;;;;;;1.53;0.57;;;13.60;99.90;;;;;;4986004;28;20481;-66
2023/10/22 04:03:04;;;;;;;2.60;0.50;;;13.60;99.90;;;;;;4987077;28;20221;-65
2023/10/22 04:05:30;;;;;;;2.93;0.73;;;13.60;99.90;;;;;;4987891;28;20327;-66
2023/10/22 04:07:56;;;;;;;1.43;0.60;;;13.60;99.90;;;;;;4987220;28;20549;-67
2023/10/22 04:10:21;;;;;;;4.97;0.90;;;13.60;99.90;;;;;;4987726;28;20191;-66
2023/10/22 04:12:47;;;;;;;0.53;0.50;;;13.70;99.90;;;;;;4987782;28;20191;-65
2023/10/22 04:15:13;;;;;;;1.27;0.50;;;13.60;99.90;;;;;;4987887;28;20255;-63
2023/10/22 04:17:39;;;;;;;2.47;0.70;;;13.60;99.90;;;;;;4988238;28;20219;-67
2023/10/22 04:20:05;;;;;;;0.90;0.70;;;13.60;99.90;;;;;;4988393;28;20179;-66
2023/10/22 04:22:32;;;;;;;1.40;0.83;;;13.50;99.90;;;;;;4987416;28;20469;-64
2023/10/22 04:24:58;;;;;;;1.40;1.13;;;13.50;99.90;;;;;;4987612;28;21073;-66
2023/10/22 04:27:23;;;;;;;1.13;0.50;;;13.50;99.90;;;;;;4988011;28;20426;-66
2023/10/22 04:29:49;;;;;;;1.40;0.50;;;13.50;99.90;;;;;;4988296;28;20191;-65
2023/10/22 04:32:18;;;;;;;1.10;0.70;;;13.50;99.90;;;;;;4987514;28;20184;-64
2023/10/22 04:34:44;;;;;;;1.77;0.60;;;13.50;99.90;;;;;;4986222;28;21134;-67
2023/10/22 04:37:10;;;;;;;1.43;0.53;;;13.50;99.90;;;;;;4987766;28;20480;-65
2023/10/22 04:39:38;;;;;;;0.90;0.60;;;13.50;99.90;;;;;;4988328;28;20248;-66
2023/10/22 04:42:04;;;;;;;1.10;0.50;;;13.50;99.90;;;;;;4987862;28;20442;-65
2023/10/22 04:44:30;;;;;;;3.97;0.70;;;13.50;99.90;;;;;;4985727;28;20959;-66
2023/10/22 04:46:56;;;;;;;1.60;0.70;;;13.50;99.90;;;;;;4988439;28;20522;-66
2023/10/22 04:49:21;;;;;;;3.37;0.67;;;13.50;99.90;;;;;;4987876;28;20187;-66
2023/10/22 04:51:47;;;;;;;2.80;0.60;;;13.50;99.90;;;;;;4987370;28;20535;-64
2023/10/22 04:54:13;;;;;;;0.90;0.57;;;13.40;99.90;;;;;;5002321;28;20267;-64
2023/10/22 04:56:38;;;;;;;1.93;0.50;;;13.50;99.90;;;;;;4987758;28;20974;-65
2023/10/22 04:59:04;;;;;;;1.00;0.50;;;13.40;99.90;;;;;;4987757;28;21155;-65
2023/10/22 05:01:30;;;;;;;0.83;0.63;;;13.50;99.90;;;;;;4987651;28;20618;-67
2023/10/22 05:03:55;;;;;;;2.93;0.50;;;13.40;99.90;;;;;;4987674;28;20247;-64
2023/10/22 05:06:21;;;;;;;1.03;0.50;;;13.40;99.90;;;;;;4988780;28;20441;-65
2023/10/22 05:08:47;;;;;;;1.47;0.83;;;13.50;99.90;;;;;;4987698;28;20179;-66
2023/10/22 05:11:16;;;;;;;1.30;0.53;;;13.50;99.90;;;;;;4987899;28;20646;-65
2023/10/22 05:13:45;;;;;;;2.83;0.97;;;13.50;99.90;;;;;;4986635;28;20262;-64
2023/10/22 05:16:11;;;;;;;1.13;0.50;;;13.50;99.90;;;;;;4987708;28;20525;-66
2023/10/22 05:18:37;;;;;;;1.10;0.50;;;13.50;99.90;;;;;;4987290;28;21042;-67
2023/10/22 05:21:05;;;;;;;1.27;0.40;;;13.50;99.90;;;;;;4987046;28;20441;-65
2023/10/22 05:23:35;;;;;;;0.60;0.40;;;13.50;99.90;;;;;;4985545;28;20495;-65
2023/10/22 05:26:07;;;;;;;1.07;0.50;;;13.50;99.90;;;;;;4995727;28;20442;-64
2023/10/22 05:28:33;;;;;;;1.30;0.47;;;13.50;99.90;;;;;;4991275;28;20422;-67
2023/10/22 05:30:59;;;;;;;0.80;0.47;;;13.50;99.90;;;;;;4990931;28;20843;-64
2023/10/22 05:33:24;;;;;;;0.90;0.50;;;13.50;99.90;;;;;;4990889;28;20191;-64
2023/10/22 05:35:50;;;;;;;0.63;0.53;;;13.50;99.90;;;;;;4989163;28;20206;-65
2023/10/22 05:38:16;;;;;;;1.03;0.50;;;13.50;99.90;;;;;;4990712;28;20188;-66
2023/10/22 05:40:41;;;;;;;1.03;0.40;;;13.50;99.90;;;;;;4990168;28;20820;-65
2023/10/22 05:43:07;;;;;;;0.40;0.30;;;13.50;99.90;;;;;;4989292;28;20207;-66
2023/10/22 05:45:33;;;;;;;0.50;0.40;;;13.40;99.90;;;;;;4990180;28;20203;-65
2023/10/22 05:47:59;;;;;;;1.03;0.40;;;13.40;99.90;;;;;;4990106;28;20191;-64
2023/10/22 05:50:25;;;;;;;0.70;0.33;;;13.40;99.90;;;;;;4990671;28;20187;-63
2023/10/22 05:52:51;;;;;;;0.70;0.53;;;13.30;99.90;;;;;;4989449;28;20434;-65
2023/10/22 05:55:18;;;;;;;2.00;0.50;;;13.40;99.90;;;;;;4991296;28;20662;-67
2023/10/22 05:57:45;;;;;;;1.43;0.50;;;13.40;99.90;;;;;;4989731;28;20430;-64
2023/10/22 06:00:14;;;;;;;0.80;0.50;;;13.40;99.90;;;;;;4990335;28;20588;-67
2023/10/22 06:02:40;;;;;;;0.77;0.40;;;13.40;99.90;;;;;;4988919;28;20501;-65
2023/10/22 06:05:09;;;;;;;2.33;0.37;;;13.40;99.90;;;;;;4989988;28;21274;-67
2023/10/22 06:07:35;;;;;;;0.53;0.30;;;13.50;99.90;;;;;;4989158;28;20438;-65
2023/10/22 06:10:00;;;;;;;0.77;0.30;;;13.40;99.90;;;;;;4989637;28;20430;-67
2023/10/22 06:12:26;;;;;;;0.50;0.40;;;13.40;99.90;;;;;;4989502;28;20234;-64
2023/10/22 06:14:52;;;;;;;0.60;0.30;;;13.40;99.90;;;;;;4988731;28;20305;-67
2023/10/22 06:17:17;;;;;;;0.50;0.30;;;13.40;99.90;;;;;;4988977;28;20187;-64
2023/10/22 06:19:43;;;;;;;0.50;0.33;;;13.40;99.90;;;;;;4989464;28;20179;-67
2023/10/22 06:22:09;;;;;;;0.87;0.33;;;13.40;99.90;;;;;;4989575;28;20263;-65
2023/10/22 06:24:35;;;;;;;0.90;0.50;;;13.40;99.90;;;;;;4989345;28;20187;-66
2023/10/22 06:27:00;;;;;;;0.40;0.30;;;13.40;99.90;;;;;;4990106;28;20246;-66
2023/10/22 06:29:26;;;;;;;2.10;0.40;;;13.30;99.90;;;;;;4990251;28;20670;-65
2023/10/22 06:31:52;;;;;;;0.80;0.40;;;13.20;99.90;;;;;;4991026;28;20191;-66
2023/10/22 06:34:17;;;;;;;0.50;0.30;;;13.20;99.90;;;;;;4988889;28;20235;-67
2023/10/22 06:36:43;;;;;;;1.07;0.40;;;13.20;99.90;;;;;;4986668;28;20241;-66
2023/10/22 06:39:09;;;;;;;0.53;0.40;;;13.20;99.90;;;;;;4988165;28;20199;-64
2023/10/22 06:41:34;;;;;;;0.70;0.40;;;13.20;99.90;;;;;;4989054;28;20222;-64
2023/10/22 06:44:00;;;;;;;0.63;0.30;;;13.20;99.90;;;;;;4987765;28;20234;-67
2023/10/22 06:46:26;;;;;;;0.87;0.40;;;13.20;99.90;;;;;;4989733;28;20187;-65
2023/10/22 06:48:51;;;;;;;1.33;0.43;;;13.20;99.90;;;;;;4990362;28;20188;-66
2023/10/22 06:51:17;;;;;;;1.30;0.40;;;13.20;99.90;;;;;;4989986;28;20439;-63
2023/10/22 06:53:46;;;;;;;0.93;0.60;;;13.20;99.90;;;;;;4988755;28;20176;-67
2023/10/22 06:56:12;;;;;;;0.90;0.67;;;13.30;99.90;;;;;;4988103;28;20191;-65
2023/10/22 06:58:38;;;;;;;1.30;0.70;;;13.30;99.90;;;;;;4989850;28;20449;-64
2023/10/22 07:01:09;;;;;;;2.20;0.50;;;13.30;99.90;;;;;;4990382;28;20191;-67
2023/10/22 07:03:40;;;;;;;0.53;0.50;;;13.30;99.90;;;;;;4984608;28;20489;-67
2023/10/22 07:06:06;;;;;;;0.63;0.50;;;13.30;99.90;;;;;;4987487;28;20424;-67
2023/10/22 07:08:32;;;;;;;0.50;0.30;;;13.20;99.90;;;;;;4988181;28;20481;-67
2023/10/22 07:10:58;;;;;;;0.83;0.50;;;13.30;99.90;;;;;;4987286;28;20191;-63
2023/10/22 07:13:24;;;;;;;1.00;0.57;;;13.20;99.90;;;;;;4988000;28;20184;-64
2023/10/22 07:15:52;;;;;;;0.70;0.50;;;13.20;99.90;;;;;;4987158;28;20853;-63
2023/10/22 07:18:18;;;;;;;0.70;0.60;;;13.20;99.90;;;;;;4988448;28;20701;-63
2023/10/22 07:20:44;;;;;;;0.97;0.47;;;13.20;99.90;;;;;;4988110;28;20439;-63
2023/10/22 07:23:09;;;;;;;0.87;0.60;;;13.20;99.90;;;;;;4986914;28;20473;-66
2023/10/22 07:25:36;;;;;;;0.93;0.40;;;13.20;99.90;;;;;;4989733;28;20521;-68
2023/10/22 07:28:03;;;;;;;0.90;0.40;;;13.10;99.90;;;;;;4988477;28;20194;-65
2023/10/22 07:30:29;;;;;;;0.60;0.57;;;13.20;99.90;;;;;;4989945;28;20434;-63
2023/10/22 07:32:55;;;;;;;0.70;0.50;;;13.10;99.90;;;;;;4988088;28;20427;-66
2023/10/22 07:35:21;;;;;;;1.20;0.40;;;13.10;99.90;;;;;;4989881;28;20430;-65
2023/10/22 07:37:47;;;;;;;1.53;0.50;;;13.20;99.90;;;;;;4986700;28;21061;-66
2023/10/22 07:40:14;;;;;;;1.63;0.60;;;13.20;99.90;;;;;;4987548;28;20440;-67
2023/10/22 07:42:44;;;;;;;0.60;0.43;;;13.30;99.90;;;;;;4988578;28;20831;-66
2023/10/22 07:45:10;;;;;;;1.50;0.60;;;13.30;99.90;;;;;;4987899;28;20448;-66
2023/10/22 07:47:37;;;;;;;0.70;0.50;;;13.30;99.90;;;;;;4988875;28;20471;-64
2023/10/22 07:50:07;;;;;;;1.07;0.47;;;13.40;99.90;;;;;;4988002;28;20465;-64
2023/10/22 07:52:34;;;;;;;0.60;0.50;;;13.40;99.90;;;;;;4988919;28;20424;-64
2023/10/22 07:55:00;;;;;;;1.77;0.47;;;13.40;99.90;;;;;;4989883;28;20444;-63
2023/10/22 07:57:27;;;;;;;0.80;0.47;;;13.40;99.90;;;;;;4990993;28;20431;-66
2023/10/22 07:59:56;;;;;;;0.70;0.40;;;13.30;99.90;;;;;;4986859;28;20427;-67
2023/10/22 08:02:23;;;;;;;0.73;0.50;;;13.30;99.90;;;;;;4980972;28;20478;-67
2023/10/22 08:04:49;;;;;;;1.20;0.80;;;13.30;99.90;;;;;;4979472;28;20467;-65
2023/10/22 08:07:18;;;;;;;0.83;0.50;;;13.30;99.90;;;;;;4986491;28;20451;-66
2023/10/22 08:09:47;;;;;;;0.90;0.53;;;13.30;99.90;;;;;;4984218;28;20582;-66
2023/10/22 08:12:13;;;;;;;0.87;0.40;;;13.30;99.90;;;;;;4984890;28;20584;-67
2023/10/22 08:14:39;;;;;;;1.60;0.60;;;13.30;99.90;;;;;;4986652;28;20520;-66
2023/10/22 08:17:05;;;;;;;0.80;0.50;;;13.30;99.90;;;;;;4985735;28;20477;-65
2023/10/22 08:19:30;;;;;;;0.83;0.53;;;13.20;99.90;;;;;;4978116;28;20471;-65
2023/10/22 08:21:56;;;;;;;1.13;0.57;;;13.30;99.90;;;;;;4986430;28;20226;-66
2023/10/22 08:24:22;;;;;;;1.27;0.50;;;13.20;99.90;;;;;;4986816;28;21220;-66
2023/10/22 08:26:47;;;;;;;0.77;0.60;;;13.30;99.90;;;;;;4985998;28;20219;-65
2023/10/22 08:29:13;;;;;;;1.13;0.60;;;13.30;99.90;;;;;;4987438;28;20214;-65
2023/10/22 08:31:39;;;;;;;1.00;0.60;;;13.30;99.90;;;;;;4985811;28;20577;-65
2023/10/22 08:34:05;;;;;;;0.60;0.53;;;13.30;99.90;;;;;;4984339;28;20359;-64
2023/10/22 08:36:30;;;;;;;2.10;0.70;;;13.40;99.90;;;;;;4985786;28;20839;-67
2023/10/22 08:38:56;;;;;;;1.17;1.07;;;13.30;99.90;;;;;;4982375;28;20214;-65
2023/10/22 08:41:25;;;;;;;1.20;0.57;;;13.30;99.90;;;;;;4982417;28;20800;-66
2023/10/22 08:43:51;;;;;;;1.00;0.53;;;13.40;99.90;;;;;;4998034;28;20486;-65
2023/10/22 08:46:17;;;;;;;1.40;0.50;;;13.40;99.90;;;;;;4982581;28;20823;-64
2023/10/22 08:48:44;;;;;;;1.27;0.87;;;13.50;99.90;;;;;;4986269;28;20470;-65
2023/10/22 08:51:10;;;;;;;0.93;0.70;;;13.50;99.90;;;;;;4987093;28;20811;-67
2023/10/22 08:53:37;;;;;;;0.97;0.87;;;13.60;99.90;;;;;;4985921;28;21136;-66
2023/10/22 08:56:03;;;;;;;1.40;0.60;;;13.70;99.90;;;;;;4985303;28;21836;-64
2023/10/22 08:58:30;;;;;;;0.90;0.70;;;13.80;99.90;;;;;;4987742;28;20461;-63
2023/10/22 09:00:56;;;;;;;1.83;0.70;;;13.80;99.90;;;;;;4988144;28;20451;-66
2023/10/22 09:03:25;;;;;;;1.27;0.70;;;13.80;99.90;;;;;;4990119;28;20489;-65
2023/10/22 09:05:53;;;;;;;0.70;0.50;;;13.80;99.90;;;;;;4990107;28;20453;-64
2023/10/22 09:08:19;;;;;;;1.00;0.60;;;13.90;99.90;;;;;;4989468;28;20980;-65
2023/10/22 09:10:45;;;;;;;0.70;0.50;;;13.90;99.90;;;;;;4990822;28;20462;-64
2023/10/22 09:13:14;;;;;;;2.57;0.60;;;13.90;99.90;;;;;;4987705;28;20461;-65
2023/10/22 09:15:44;;;;;;;1.60;0.67;;;13.90;99.90;;;;;;4987838;28;20217;-64
2023/10/22 09:18:11;;;;;;;1.43;0.53;;;13.90;99.90;;;;;;4989515;28;20557;-64
2023/10/22 09:20:38;;;;;;;1.43;0.80;;;13.90;99.90;;;;;;4978029;28;20462;-63
2023/10/22 09:23:21;;;;;;;1.30;0.80;;;14.00;99.90;;;;;;4986367;28;20478;-66
2023/10/22 09:25:48;;;;;;;1.30;0.53;;;14.00;99.90;;;;;;4990602;28;20449;-63
2023/10/22 09:28:32;;;;;;;0.50;0.40;;;14.00;99.90;;;;;;4989836;28;20936;-63
2023/10/22 09:30:58;;;;;;;0.60;0.60;;;14.10;99.90;;;;;;4988520;28;21234;-64
2023/10/22 09:33:31;;;;;;;0.60;0.40;;;14.10;99.90;;;;;;4988844;28;20453;-65
2023/10/22 09:36:01;;;;;;;0.80;0.50;;;14.10;99.90;;;;;;4990220;28;21177;-66
2023/10/22 09:38:39;;;;;;;1.27;0.57;;;14.10;99.90;;;;;;4990016;28;20443;-63
2023/10/22 09:41:05;;;;;;;1.53;0.67;;;14.10;99.90;;;;;;4989503;28;20479;-64
2023/10/22 09:43:31;;;;;;;1.67;0.70;;;14.10;99.90;;;;;;4989754;28;20474;-66
2023/10/22 09:45:57;;;;;;;1.30;0.70;;;14.10;99.90;;;;;;4988823;28;20194;-63
2023/10/22 09:48:26;;;;;;;1.70;0.80;;;14.20;99.90;;;;;;4990277;28;21577;-63
2023/10/22 09:50:53;;;;;;;2.07;0.57;;;14.20;99.90;;;;;;4990436;28;20932;-65
2023/10/22 09:53:22;;;;;;;1.93;0.63;;;14.20;99.90;;;;;;4989121;28;20438;-63
2023/10/22 09:55:49;;;;;;;0.80;0.70;;;14.20;99.90;;;;;;4989585;28;20442;-66
2023/10/22 09:58:19;;;;;;;3.23;0.60;;;14.30;99.90;;;;;;4989898;28;20434;-63
2023/10/22 10:00:45;;;;;;;0.90;0.70;;;14.30;99.90;;;;;;4989811;28;20533;-66
2023/10/22 10:03:12;;;;;;;0.90;0.70;;;14.40;99.90;;;;;;4986264;28;21152;-63
2023/10/22 10:05:39;;;;;;;1.00;0.53;;;14.50;99.90;;;;;;4990738;28;20497;-65
2023/10/22 10:08:04;;;;;;;2.50;1.10;;;14.50;99.90;;;;;;4990370;28;20430;-65
2023/10/22 10:10:30;;;;;;;1.43;0.90;;;14.40;99.90;;;;;;4991091;28;20432;-65
2023/10/22 10:12:56;;;;;;;2.20;1.00;;;14.40;99.90;;;;;;4989686;28;20183;-67
2023/10/22 10:15:40;;;;;;;4.03;0.80;;;14.30;99.90;;;;;;4984383;28;20191;-66
2023/10/22 10:18:09;;;;;;;1.17;0.50;;;14.40;99.90;;;;;;4989313;28;20433;-67
2023/10/22 10:20:39;;;;;;;1.67;0.77;;;14.30;99.90;;;;;;4990219;28;20449;-67
2023/10/22 10:23:06;;;;;;;1.10;0.67;;;14.30;99.90;;;;;;4987590;28;20470;-66
2023/10/22 10:25:33;;;;;;;1.67;0.70;;;14.30;99.90;;;;;;4989673;28;20471;-65
2023/10/22 10:28:06;;;;;;;0.83;0.70;;;14.30;99.90;;;;;;4988009;28;20430;-65
2023/10/22 10:30:33;;;;;;;1.33;1.10;;;14.30;99.90;;;;;;4986823;28;20434;-66
2023/10/22 10:32:59;;;;;;;1.10;0.70;;;14.30;99.90;;;;;;4987573;28;20428;-67
2023/10/22 10:35:27;;;;;;;1.40;0.70;;;14.30;99.90;;;;;;4986692;28;20435;-65
2023/10/22 10:38:15;;;;;;;1.40;0.97;;;14.30;99.90;;;;;;4990399;28;20489;-65
2023/10/22 10:40:44;;;;;;;1.33;0.60;;;14.30;99.90;;;;;;4987611;28;21155;-65
2023/10/22 10:43:11;;;;;;;1.10;0.60;;;14.40;99.90;;;;;;4986000;28;20478;-64
2023/10/22 10:45:41;;;;;;;1.00;0.70;;;14.40;99.90;;;;;;4986897;28;20451;-66
2023/10/22 10:48:43;;;;;;;0.80;0.57;;;14.40;99.90;;;;;;4990549;28;20796;-65
2023/10/22 10:51:19;;;;;;;0.60;0.60;;;14.50;99.90;;;;;;4987610;28;21084;-63
2023/10/22 10:54:03;;;;;;;1.00;0.60;;;14.50;99.90;;;;;;4978461;28;20484;-66
2023/10/22 10:56:48;;;;;;;1.17;0.60;;;14.60;99.90;;;;;;4987310;28;20454;-64
2023/10/22 10:59:32;;;;;;;3.10;0.70;;;14.50;99.90;;;;;;4985699;28;20440;-63
2023/10/22 11:02:10;;;;;;;0.70;0.70;;;14.60;99.90;;;;;;4988558;28;20508;-64
2023/10/22 11:04:37;;;;;;;5.10;0.83;;;14.70;99.90;;;;;;4988080;28;20473;-64
2023/10/22 11:07:05;;;;;;;2.50;0.87;;;14.60;99.90;;;;;;4989769;28;20445;-64
2023/10/22 11:09:33;;;;;;;1.07;0.70;;;14.60;99.90;;;;;;4988204;28;20435;-66
2023/10/22 11:12:03;;;;;;;1.57;0.90;;;14.70;99.90;;;;;;4987197;28;21306;-65
2023/10/22 11:14:33;;;;;;;1.70;0.60;;;14.70;99.90;;;;;;4987981;28;20443;-64
2023/10/22 11:17:00;;;;;;;3.70;0.60;;;14.60;99.90;;;;;;4980181;28;20879;-65
2023/10/22 11:19:28;;;;;;;1.60;0.80;;;14.60;99.90;;;;;;4988805;28;20434;-64
2023/10/22 11:21:57;;;;;;;0.90;0.70;;;14.60;99.90;;;;;;4989862;28;20431;-64
2023/10/22 11:24:34;;;;;;;1.00;0.60;;;14.50;99.90;;;;;;4988352;28;20991;-66
2023/10/22 11:27:02;;;;;;;1.60;0.50;;;14.60;99.90;;;;;;4988144;28;20433;-64
2023/10/22 11:29:29;;;;;;;0.67;0.50;;;14.60;99.90;;;;;;4988060;28;20503;-65
2023/10/22 11:31:59;;;;;;;0.87;0.73;;;14.50;99.90;;;;;;4987569;28;20458;-66
2023/10/22 11:34:25;;;;;;;1.60;0.73;;;14.60;99.90;;;;;;4987409;28;20423;-64
2023/10/22 11:36:58;;;;;;;0.70;0.50;;;14.60;99.90;;;;;;4986589;28;20461;-66
2023/10/22 11:39:33;;;;;;;0.70;0.70;;;14.50;99.90;;;;;;4989322;28;21081;-66
2023/10/22 11:41:59;;;;;;;1.40;0.70;;;14.60;99.90;;;;;;4987842;28;20442;-64
2023/10/22 11:44:32;;;;;;;2.63;1.13;;;14.60;99.90;;;;;;4985627;28;20556;-65
2023/10/22 11:46:59;;;;;;;2.20;0.70;;;14.60;99.90;;;;;;4987339;28;20426;-65
2023/10/22 11:49:25;;;;;;;1.13;0.87;;;14.50;99.90;;;;;;4986680;28;20459;-66
2023/10/22 11:51:50;;;;;;;0.90;0.60;;;14.40;99.90;;;;;;4987477;28;20541;-65
2023/10/22 11:54:16;;;;;;;2.30;0.70;;;14.40;99.90;;;;;;4987698;28;20183;-66
2023/10/22 11:56:42;;;;;;;1.40;0.80;;;14.50;99.90;;;;;;4986880;28;20190;-66
2023/10/22 11:59:08;;;;;;;1.17;0.70;;;14.50;99.90;;;;;;4988128;28;20211;-66
2023/10/22 12:01:33;;;;;;;1.60;0.57;;;14.50;99.90;;;;;;4987703;28;20193;-64
2023/10/22 12:04:00;;;;;;;1.47;0.60;;;14.60;99.90;;;;;;4986097;28;20310;-66
2023/10/22 12:06:26;;;;;;;1.33;0.60;;;14.70;99.90;;;;;;4988746;28;20195;-66
2023/10/22 12:08:51;;;;;;;0.83;0.40;;;14.70;99.90;;;;;;4988024;28;20434;-66
2023/10/22 12:11:17;;;;;;;1.57;0.93;;;14.80;99.90;;;;;;4990502;28;20423;-66
2023/10/22 12:13:43;;;;;;;0.80;0.40;;;14.80;99.90;;;;;;4988747;28;20232;-65
2023/10/22 12:16:08;;;;;;;2.87;0.80;;;14.90;99.90;;;;;;4986620;28;20436;-64
2023/10/22 12:18:34;;;;;;;1.10;0.53;;;15.00;99.90;;;;;;4988769;28;20195;-64
2023/10/22 12:21:00;;;;;;;1.03;0.50;;;15.10;99.90;;;;;;4986957;28;20194;-64
2023/10/22 12:23:25;;;;;;;0.87;0.57;;;15.10;99.90;;;;;;4985820;28;20280;-65
2023/10/22 12:25:51;;;;;;;0.70;0.60;;;15.20;99.90;;;;;;4984755;28;20721;-64
2023/10/22 12:28:16;;;;;;;0.97;0.60;;;15.20;99.90;;;;;;4988266;28;20183;-67
2023/10/22 12:30:42;;;;;;;0.70;0.60;;;15.10;99.90;;;;;;4987804;28;20190;-67
2023/10/22 12:33:11;;;;;;;1.77;0.70;;;15.10;99.90;;;;;;4986433;28;20184;-65
2023/10/22 12:35:39;;;;;;;2.17;0.60;;;15.10;99.90;;;;;;4990581;28;21027;-64
2023/10/22 12:38:05;;;;;;;2.03;0.70;;;15.20;99.90;;;;;;4991409;28;21464;-64
2023/10/22 12:40:31;;;;;;;1.13;0.70;;;15.30;99.90;;;;;;4991414;28;20684;-65
2023/10/22 12:42:56;;;;;;;2.40;0.80;;;15.40;99.90;;;;;;4983319;28;20653;-67
2023/10/22 12:45:22;;;;;;;2.30;1.23;;;15.40;99.90;;;;;;4983694;28;20217;-67
2023/10/22 12:47:48;;;;;;;1.10;1.00;;;15.40;99.90;;;;;;4983567;28;20246;-65